Time;durP1;ratioP1;P1;durP2;ratioP2;P2;SDS_P1;SDS_P2;PMS_P1;PMS_P2;Temp;Humidity;BMP_temperature;BMP_pressure;BME280_temperature;BME280_humidity;BME280_pressure;Samples;Min_cycle;Max_cycle;Signal;HPM_P1;HPM_P2
2023/05/19 00:02:49;;;;;;;10.03;8.57;;;;;;;21.04;50.31;95252.56;6124133;22;109292;-70
2023/05/19 00:05:54;;;;;;;14.80;7.97;;;;;;;21.05;50.36;95240.09;6109727;28;108896;-70
2023/05/19 00:08:59;;;;;;;9.10;7.73;;;;;;;21.05;50.58;95251.50;6103443;28;111042;-70
2023/05/19 00:12:03;;;;;;;8.80;7.80;;;;;;;21.01;50.33;95250.50;6117621;28;109152;-70
2023/05/19 00:15:10;;;;;;;7.73;6.90;;;;;;;21.03;50.39;95242.22;6129101;28;108902;-69
2023/05/19 00:18:15;;;;;;;14.00;7.57;;;;;;;20.99;50.24;95231.34;6100457;28;109265;-70
2023/05/19 00:21:18;;;;;;;8.90;7.10;;;;;;;20.99;50.02;95230.56;6113631;28;109039;-70
2023/05/19 00:24:22;;;;;;;7.60;6.87;;;;;;;21.02;50.27;95230.78;6114202;28;109020;-72
2023/05/19 00:27:25;;;;;;;7.40;6.70;;;;;;;21.00;49.84;95237.47;6113015;28;109216;-70
2023/05/19 00:30:30;;;;;;;8.20;7.00;;;;;;;20.97;50.08;95238.06;6102759;28;109023;-71
2023/05/19 00:33:34;;;;;;;7.37;6.67;;;;;;;21.00;49.93;95240.13;6113551;28;108816;-71
2023/05/19 00:36:37;;;;;;;8.10;7.30;;;;;;;20.97;50.48;95233.53;6112993;28;109083;-71
2023/05/19 00:39:40;;;;;;;7.83;7.10;;;;;;;20.97;50.19;95232.72;6111867;28;108911;-72
2023/05/19 00:42:43;;;;;;;7.93;6.70;;;;;;;;;;6116133;28;110116;-71
2023/05/19 00:45:48;;;;;;;9.23;7.83;;;;;;;20.97;49.99;95222.09;6120356;28;108822;-71
2023/05/19 00:48:51;;;;;;;8.10;7.40;;;;;;;20.91;49.91;95210.75;6109741;28;108884;-71
2023/05/19 00:51:56;;;;;;;8.40;7.60;;;;;;;20.96;49.94;95225.84;6105902;28;108941;-69
2023/05/19 00:54:59;;;;;;;8.53;7.63;;;;;;;20.92;50.24;95221.13;6121866;28;109009;-70
2023/05/19 00:58:04;;;;;;;13.73;7.10;;;;;;;20.89;50.35;95215.59;6111644;28;108926;-70
2023/05/19 01:01:10;;;;;;;7.87;7.10;;;;;;;20.86;50.12;95216.97;6112195;28;108992;-70
2023/05/19 01:04:15;;;;;;;12.50;8.00;;;;;;;20.93;50.00;95220.03;6120962;28;108866;-70
2023/05/19 01:07:20;;;;;;;7.70;7.00;;;;;;;20.96;49.93;95220.53;6122836;28;110799;-70
2023/05/19 01:10:23;;;;;;;8.93;7.40;;;;;;;20.87;50.01;95207.91;6110794;28;108892;-70
2023/05/19 01:13:29;;;;;;;7.10;6.50;;;;;;;20.91;49.62;95230.19;6109387;28;108976;-76
2023/05/19 01:16:40;;;;;;;8.40;7.40;;;;;;;20.90;49.98;95228.59;6099209;28;108975;-75
2023/05/19 01:19:56;;;;;;;9.03;8.13;;;;;;;20.90;49.98;95236.56;6106045;28;108906;-75
2023/05/19 01:23:35;;;;;;;9.50;8.57;;;;;;;20.89;50.07;95232.34;6123887;28;108900;-75
2023/05/19 01:27:23;;;;;;;9.23;7.10;;;;;;;20.92;50.26;95230.97;6102855;28;109787;-70
2023/05/19 01:30:33;;;;;;;8.20;7.40;;;;;;;20.91;49.72;95224.84;6081196;28;108931;-76
2023/05/19 01:33:39;;;;;;;7.80;7.07;;;;;;;20.90;50.10;95217.16;6113475;28;109161;-75
2023/05/19 01:36:44;;;;;;;8.90;8.10;;;;;;;20.88;49.81;95233.44;6105102;28;108909;-76
2023/05/19 01:39:49;;;;;;;8.37;7.57;;;;;;;20.88;49.80;95241.41;6102255;28;108711;-77
2023/05/19 01:42:54;;;;;;;8.37;7.57;;;;;;;20.88;50.16;95230.78;6111459;28;109521;-75
2023/05/19 01:46:02;;;;;;;7.97;7.20;;;;;;;20.86;50.18;95224.94;6112790;28;108634;-76
2023/05/19 01:49:06;;;;;;;8.00;7.30;;;;;;;20.82;50.41;95229.25;6101113;28;109040;-77
2023/05/19 01:52:09;;;;;;;7.53;6.83;;;;;;;20.83;49.98;95233.50;6112202;28;108902;-76
2023/05/19 01:55:12;;;;;;;8.00;7.30;;;;;;;20.86;49.93;95232.94;6112016;28;108921;-77
2023/05/19 01:58:22;;;;;;;8.53;7.73;;;;;;;20.84;50.08;95227.13;6111845;28;109074;-77
2023/05/19 02:01:33;;;;;;;10.97;8.13;;;;;;;20.84;50.57;95229.78;6101140;28;109501;-77
2023/05/19 02:04:43;;;;;;;9.63;7.67;;;;;;;20.84;50.33;95237.75;6113322;28;108661;-75
2023/05/19 02:07:57;;;;;;;8.50;7.70;;;;;;;20.85;49.82;95236.69;6112331;28;108963;-77
2023/05/19 02:11:07;;;;;;;8.50;7.70;;;;;;;20.85;50.12;95236.69;6106760;28;109008;-77
2023/05/19 02:14:16;;;;;;;8.13;7.33;;;;;;;20.86;49.84;95240.13;6107280;28;109216;-77
2023/05/19 02:17:23;;;;;;;8.50;7.20;;;;;;;20.85;50.32;95241.22;6111992;28;109363;-76
2023/05/19 02:20:26;;;;;;;8.00;7.20;;;;;;;20.84;50.32;95235.09;6109295;28;108848;-77
2023/05/19 02:23:30;;;;;;;8.23;7.43;;;;;;;20.85;49.75;95236.69;6105270;28;108924;-76
2023/05/19 02:26:33;;;;;;;8.50;7.80;;;;;;;20.86;49.92;95242.78;6115633;28;109099;-77
2023/05/19 02:29:36;;;;;;;9.70;7.53;;;;;;;20.78;49.87;95230.94;6115959;28;109224;-77
2023/05/19 02:32:40;;;;;;;10.10;8.73;;;;;;;20.81;49.91;95238.31;6116244;28;108933;-76
2023/05/19 02:35:44;;;;;;;7.63;7.03;;;;;;;20.78;49.88;95230.16;6104935;28;108839;-76
2023/05/19 02:38:49;;;;;;;8.97;8.17;;;;;;;20.80;50.37;95238.63;6117181;28;108699;-76
2023/05/19 02:41:52;;;;;;;8.27;7.57;;;;;;;20.79;50.22;95240.47;6121221;28;108979;-76
2023/05/19 02:44:55;;;;;;;8.07;7.27;;;;;;;20.78;50.18;95238.91;6108688;28;108978;-76
2023/05/19 02:48:00;;;;;;;10.40;8.07;;;;;;;20.81;49.59;95240.97;6110070;28;108922;-76
2023/05/19 02:51:04;;;;;;;10.70;8.57;;;;;;;20.77;49.75;95239.19;6115418;28;108900;-77
2023/05/19 02:54:07;;;;;;;9.63;8.73;;;;;;;20.67;50.00;95224.22;6116376;28;109056;-76
2023/05/19 02:57:10;;;;;;;9.63;8.70;;;;;;;20.78;50.06;95236.25;6104440;28;109179;-77
2023/05/19 03:00:14;;;;;;;9.30;8.50;;;;;;;20.80;49.99;95243.94;6114866;28;108968;-77
2023/05/19 03:03:19;;;;;;;8.93;8.13;;;;;;;20.80;50.02;95249.25;6092050;28;108908;-77
2023/05/19 03:06:23;;;;;;;10.20;9.30;;;;;;;20.77;49.84;95250.63;6110710;28;108971;-76
2023/05/19 03:09:26;;;;;;;8.97;8.17;;;;;;;20.74;50.15;95253.09;6104873;28;108897;-77
2023/05/19 03:12:30;;;;;;;10.40;8.80;;;;;;;20.76;49.82;95251.72;6115404;28;108881;-76
2023/05/19 03:15:34;;;;;;;10.47;8.57;;;;;;;20.73;49.86;95257.63;6114132;28;108933;-77
2023/05/19 03:18:38;;;;;;;10.10;9.00;;;;;;;20.76;50.00;95257.03;6114839;28;109289;-74
2023/05/19 03:21:41;;;;;;;12.77;9.83;;;;;;;20.80;50.14;95260.69;6107380;28;108943;-77
2023/05/19 03:24:44;;;;;;;16.70;11.30;;;;;;;20.79;50.28;95253.00;6115516;28;108884;-77
2023/05/19 03:27:48;;;;;;;40.47;13.60;;;;;;;20.78;50.22;95249.53;6115328;28;108908;-71
2023/05/19 03:30:51;;;;;;;28.90;13.70;;;;;;;20.80;51.01;95255.34;6111196;28;109262;-70
2023/05/19 03:33:56;;;;;;;23.83;15.30;;;;;;;20.84;50.52;95253.72;7058070;22;111666;-67
2023/05/19 03:36:59;;;;;;;23.97;14.43;;;;;;;20.86;50.54;95256.88;6114302;28;108943;-70
2023/05/19 03:40:04;;;;;;;23.50;14.30;;;;;;;20.86;51.04;95256.09;6109961;28;108964;-72
2023/05/19 03:43:07;;;;;;;19.40;14.17;;;;;;;20.86;50.70;95253.44;6100396;28;109382;-68
2023/05/19 03:46:11;;;;;;;21.03;13.40;;;;;;;20.86;50.84;95264.84;6113683;28;108895;-70
2023/05/19 03:49:15;;;;;;;23.03;14.60;;;;;;;20.84;50.53;95256.38;6110417;28;108943;-69
2023/05/19 03:52:18;;;;;;;23.13;14.00;;;;;;;20.86;50.74;95258.75;6109288;28;108883;-69
2023/05/19 03:55:22;;;;;;;33.00;14.60;;;;;;;20.85;51.43;95265.94;6088844;28;108966;-70
2023/05/19 03:58:25;;;;;;;19.80;12.23;;;;;;;20.79;49.65;95256.44;6108621;28;108943;-70
2023/05/19 04:01:28;;;;;;;17.27;11.40;;;;;;;20.76;49.11;95264.22;6115153;28;108837;-70
2023/05/19 04:04:33;;;;;;;11.77;9.97;;;;;;;20.71;48.88;95267.75;6085849;28;109001;-70
2023/05/19 04:07:36;;;;;;;14.97;11.07;;;;;;;20.72;48.83;95263.22;6104625;28;109243;-70
2023/05/19 04:10:39;;;;;;;48.87;12.17;;;;;;;20.77;49.73;95273.78;6106298;28;108799;-67
2023/05/19 04:13:43;;;;;;;28.13;11.70;;;;;;;20.77;49.35;95271.91;6109045;28;108869;-66
2023/05/19 04:16:47;;;;;;;18.30;10.37;;;;;;;20.81;49.40;95278.22;6099490;28;109018;-66
2023/05/19 04:19:51;;;;;;;17.87;11.30;;;;;;;20.88;48.33;95273.31;6114299;28;108898;-66
2023/05/19 04:22:55;;;;;;;16.93;12.13;;;;;;;20.90;48.34;95287.13;6118258;28;108924;-67
2023/05/19 04:25:59;;;;;;;16.33;11.40;;;;;;;20.90;48.63;95289.78;6108397;28;109009;-67
2023/05/19 04:29:03;;;;;;;29.07;12.37;;;;;;;20.84;48.69;95282.97;6091103;28;109468;-67
2023/05/19 04:32:07;;;;;;;24.73;12.20;;;;;;;20.82;48.20;95289.63;6101744;28;108835;-66
2023/05/19 04:35:12;;;;;;;20.17;10.87;;;;;;;20.65;48.53;95295.50;6109309;28;108908;-68
2023/05/19 04:38:17;;;;;;;100.07;15.53;;;;;;;20.70;48.67;95294.66;6110936;28;108915;-67
2023/05/19 04:41:21;;;;;;;82.33;14.77;;;;;;;20.29;47.08;95287.25;6106375;28;109083;-67
2023/05/19 04:44:25;;;;;;;48.20;12.73;;;;;;;19.82;48.08;95296.88;6113016;28;109258;-66
2023/05/19 04:47:28;;;;;;;43.80;10.97;;;;;;;19.80;47.79;95284.97;6112163;28;108990;-67
2023/05/19 04:50:34;;;;;;;62.83;11.00;;;;;;;19.99;47.92;95296.41;6103602;28;109031;-63
2023/05/19 04:53:39;;;;;;;48.07;12.00;;;;;;;20.17;47.86;95290.34;6113694;28;108896;-62
2023/05/19 04:56:42;;;;;;;32.90;9.80;;;;;;;20.32;47.61;95302.63;6110321;28;108821;-63
2023/05/19 04:59:46;;;;;;;18.07;9.63;;;;;;;20.39;47.33;95304.94;6113790;28;108882;-62
2023/05/19 05:02:49;;;;;;;17.00;9.70;;;;;;;20.36;47.22;95300.22;6102561;28;109203;-62
2023/05/19 05:05:55;;;;;;;13.60;8.70;;;;;;;20.32;47.38;95303.41;6113456;28;108876;-62
2023/05/19 05:08:59;;;;;;;10.40;8.67;;;;;;;20.35;47.18;95306.59;6112654;28;109358;-62
2023/05/19 05:12:03;;;;;;;11.93;9.10;;;;;;;20.34;47.15;95303.16;6103310;28;109019;-62
2023/05/19 05:15:08;;;;;;;8.77;7.90;;;;;;;20.34;47.16;95297.84;6103356;28;109262;-64
2023/05/19 05:18:11;;;;;;;10.77;8.27;;;;;;;20.35;47.27;95301.28;6116525;28;109173;-63
2023/05/19 05:21:17;;;;;;;11.73;8.87;;;;;;;20.31;47.04;95291.22;6102699;28;108919;-63
2023/05/19 05:24:20;;;;;;;10.37;8.40;;;;;;;20.37;47.44;95302.56;6090569;28;109011;-64
2023/05/19 05:27:24;;;;;;;10.17;9.27;;;;;;;20.39;47.21;95304.94;6111708;28;109056;-62
2023/05/19 05:30:27;;;;;;;9.47;8.47;;;;;;;20.39;47.28;95302.28;6126743;28;109006;-63
2023/05/19 05:33:30;;;;;;;10.40;9.40;;;;;;;20.43;47.06;95305.94;6106567;28;108953;-62
2023/05/19 05:36:35;;;;;;;8.73;7.93;;;;;;;20.44;47.25;95305.66;6106870;28;111114;-63
2023/05/19 05:39:38;;;;;;;9.20;8.40;;;;;;;20.46;47.13;95302.69;6098234;28;108963;-63
2023/05/19 05:42:41;;;;;;;9.87;9.00;;;;;;;20.53;47.06;95309.25;6089121;28;108915;-63
2023/05/19 05:45:44;;;;;;;9.27;8.37;;;;;;;20.54;46.89;95305.50;6089156;28;108914;-63
2023/05/19 05:48:48;;;;;;;9.33;8.57;;;;;;;20.56;46.61;95303.34;6078339;28;109061;-63
2023/05/19 05:51:54;;;;;;;10.00;9.20;;;;;;;20.64;46.82;95315.19;6111242;28;108924;-63
2023/05/19 05:55:09;;;;;;;9.50;8.60;;;;;;;20.68;47.22;95318.88;6113740;28;108922;-63
2023/05/19 05:58:13;;;;;;;8.80;8.00;;;;;;;20.71;46.87;95323.59;6107770;28;108850;-63
2023/05/19 06:01:22;;;;;;;8.50;7.70;;;;;;;20.76;47.01;95328.84;6107775;28;108925;-63
2023/05/19 06:04:26;;;;;;;8.33;7.40;;;;;;;20.78;46.60;95329.34;6112983;28;108842;-63
2023/05/19 06:07:30;;;;;;;15.73;8.40;;;;;;;20.79;46.79;95333.56;6112124;28;108985;-64
2023/05/19 06:10:34;;;;;;;78.73;14.00;;;;;;;20.87;46.80;95335.59;6101311;28;108896;-70
2023/05/19 06:13:40;;;;;;;28.17;10.00;;;;;;;20.97;46.56;95331.16;6098371;28;108942;-69
2023/05/19 06:16:43;;;;;;;32.73;8.47;;;;;;;21.01;46.89;95338.28;6089839;28;108745;-69
2023/05/19 06:19:46;;;;;;;30.37;8.80;;;;;;;21.05;47.39;95336.66;6087487;28;108890;-70
2023/05/19 06:22:51;;;;;;;17.13;7.77;;;;;;;21.08;47.07;95332.63;6078432;28;108874;-71
2023/05/19 06:25:55;;;;;;;23.10;8.83;;;;;;;21.11;47.02;95335.47;6088509;28;108882;-71
2023/05/19 06:28:58;;;;;;;23.57;8.90;;;;;;;21.15;47.28;95335.69;6087778;28;109064;-71
2023/05/19 06:32:01;;;;;;;21.07;7.70;;;;;;;21.16;47.25;95337.25;6083271;28;109000;-71
2023/05/19 06:35:05;;;;;;;13.60;7.57;;;;;;;21.16;47.54;95335.38;6083470;28;109945;-71
2023/05/19 06:38:10;;;;;;;10.40;7.40;;;;;;;21.22;47.71;95333.44;6111683;28;108801;-71
2023/05/19 06:41:13;;;;;;;11.10;7.77;;;;;;;21.24;47.63;95341.94;6112570;28;108943;-70
2023/05/19 06:44:16;;;;;;;16.40;8.17;;;;;;;21.19;48.54;95344.69;6102336;28;109639;-70
2023/05/19 06:47:22;;;;;;;34.93;10.03;;;;;;;20.75;47.07;95343.22;6112144;28;109002;-66
2023/05/19 06:50:26;;;;;;;18.00;9.07;;;;;;;20.59;46.95;95331.22;6111482;28;108899;-71
2023/05/19 06:53:31;;;;;;;43.17;11.10;;;;;;;20.67;46.76;95335.91;6111885;28;108898;-70
2023/05/19 06:56:35;;;;;;;28.23;9.93;;;;;;;20.76;46.55;95334.16;6101138;28;108964;-69
2023/05/19 06:59:39;;;;;;;23.13;9.53;;;;;;;20.93;46.55;95346.94;6111943;28;108805;-68
2023/05/19 07:02:42;;;;;;;15.13;8.10;;;;;;;21.09;46.38;95344.84;6111583;28;108808;-65
2023/05/19 07:05:46;;;;;;;21.23;8.33;;;;;;;21.39;45.75;95346.19;6112179;28;108974;-62
2023/05/19 07:08:51;;;;;;;21.90;7.97;;;;;;;21.56;45.81;95346.41;6101147;28;108994;-61
2023/05/19 07:11:55;;;;;;;23.93;8.40;;;;;;;21.69;45.84;95350.19;6111360;28;109037;-62
2023/05/19 07:14:58;;;;;;;26.07;8.63;;;;;;;21.77;45.43;95352.16;6115110;28;108987;-61
2023/05/19 07:18:01;;;;;;;19.10;8.37;;;;;;;21.76;45.54;95358.56;6104795;28;109642;-62
2023/05/19 07:21:06;;;;;;;21.33;7.97;;;;;;;21.78;45.71;95351.84;6104801;28;109038;-63
2023/05/19 07:24:10;;;;;;;19.50;8.87;;;;;;;21.82;45.34;95349.41;6115209;28;109066;-63
2023/05/19 07:27:14;;;;;;;23.70;8.40;;;;;;;21.86;45.45;95354.97;6115290;28;108953;-61
2023/05/19 07:30:17;;;;;;;17.57;8.00;;;;;;;21.89;45.95;95357.03;6104718;28;108721;-62
2023/05/19 07:33:20;;;;;;;12.43;7.80;;;;;;;21.89;45.68;95357.03;6115391;28;109027;-62
2023/05/19 07:36:23;;;;;;;13.27;7.70;;;;;;;21.88;46.03;95356.22;6114546;28;109019;-62
2023/05/19 07:39:28;;;;;;;11.47;7.80;;;;;;;22.09;45.53;95352.06;6114848;28;108898;-62
2023/05/19 07:42:31;;;;;;;11.80;7.77;;;;;;;22.93;44.19;95356.13;6106270;28;110832;-61
2023/05/19 07:45:35;;;;;;;14.70;6.93;;;;;;;23.79;42.14;95350.50;6099409;28;109023;-62
2023/05/19 07:48:38;;;;;;;35.43;9.63;;;;;;;24.32;41.71;95358.41;6090610;28;109019;-62
2023/05/19 07:51:41;;;;;;;22.90;7.00;;;;;;;24.58;41.28;95352.31;6085608;28;108910;-62
2023/05/19 07:54:46;;;;;;;19.73;7.67;;;;;;;24.74;40.84;95358.81;6085121;28;108951;-62
2023/05/19 07:57:49;;;;;;;17.60;7.40;;;;;;;24.79;41.24;95346.03;6090422;28;108902;-62
2023/05/19 08:00:52;;;;;;;15.43;8.17;;;;;;;24.94;40.93;95352.03;6097603;28;108941;-63
2023/05/19 08:03:56;;;;;;;22.33;7.63;;;;;;;25.07;40.71;95346.50;6096288;28;109460;-62
2023/05/19 08:06:59;;;;;;;19.10;7.40;;;;;;;25.17;40.05;95345.38;6127063;28;108852;-62
2023/05/19 08:10:05;;;;;;;16.60;7.20;;;;;;;25.23;40.57;95352.16;6119031;28;108908;-63
2023/05/19 08:13:08;;;;;;;18.73;7.37;;;;;;;25.26;40.42;95356.06;6128281;28;108940;-63
2023/05/19 08:16:11;;;;;;;15.23;6.17;;;;;;;25.38;40.53;95348.22;6111523;28;109427;-66
2023/05/19 08:19:14;;;;;;;12.90;6.30;;;;;;;25.03;41.07;95350.09;6112035;28;108888;-66
2023/05/19 08:22:17;;;;;;;13.77;6.33;;;;;;;24.49;42.05;95350.41;6113276;28;108876;-66
2023/05/19 08:25:22;;;;;;;12.10;6.27;;;;;;;24.67;41.91;95350.41;6113673;28;108941;-66
2023/05/19 08:28:25;;;;;;;12.20;6.80;;;;;;;24.90;41.43;95346.53;6106340;28;108992;-66
2023/05/19 08:31:29;;;;;;;21.57;6.67;;;;;;;25.02;41.51;95338.59;6114438;28;108872;-65
2023/05/19 08:34:32;;;;;;;20.97;8.10;;;;;;;25.09;42.07;95340.81;6113174;28;108903;-66
2023/05/19 08:37:37;;;;;;;22.70;7.40;;;;;;;25.28;42.31;95340.47;6106593;28;109070;-66
2023/05/19 08:40:42;;;;;;;29.47;8.60;;;;;;;25.08;42.86;95348.06;6111233;28;109010;-66
2023/05/19 08:43:45;;;;;;;21.07;8.20;;;;;;;24.52;43.61;95350.88;6114491;28;108913;-66
2023/05/19 08:46:49;;;;;;;30.37;8.60;;;;;;;24.52;43.50;95345.50;6113731;28;108897;-66
2023/05/19 08:50:06;;;;;;;17.73;6.67;;;;;;;24.82;43.10;95344.63;6103201;28;109184;-65
2023/05/19 08:53:14;;;;;;;22.47;8.20;;;;;;;24.91;42.85;95336.59;6113110;28;108923;-64
2023/05/19 08:56:38;;;;;;;24.07;7.93;;;;;;;25.09;42.60;95340.81;6096842;28;109430;-66
2023/05/19 08:59:43;;;;;;;22.63;7.43;;;;;;;25.18;42.23;95343.47;6092825;28;108920;-65
2023/05/19 09:02:49;;;;;;;13.50;6.87;;;;;;;25.26;42.17;95337.31;6122989;28;108731;-65
2023/05/19 09:06:08;;;;;;;13.63;7.47;;;;;;;25.34;42.04;95336.50;6118969;28;108927;-65
2023/05/19 09:09:11;;;;;;;14.07;7.27;;;;;;;25.48;41.95;95334.44;6113310;28;108884;-65
2023/05/19 09:12:16;;;;;;;22.80;8.20;;;;;;;25.60;41.60;95334.56;6102790;28;108883;-65
2023/05/19 09:15:19;;;;;;;11.50;6.60;;;;;;;25.47;41.62;95327.53;6113861;28;108902;-65
2023/05/19 09:18:24;;;;;;;12.20;7.30;;;;;;;24.87;42.77;95319.59;6109343;28;108935;-65
2023/05/19 09:21:30;;;;;;;15.53;7.03;;;;;;;25.07;42.41;95319.72;6137316;28;108901;-63
2023/05/19 09:24:34;;;;;;;20.10;7.70;;;;;;;25.29;41.65;95318.72;6124967;28;108811;-62
2023/05/19 09:27:39;;;;;;;23.13;8.70;;;;;;;25.55;41.58;95318.69;6114787;28;109207;-62
2023/05/19 09:30:42;;;;;;;20.83;7.80;;;;;;;25.72;40.92;95325.09;6103808;28;108966;-62
2023/05/19 09:33:45;;;;;;;13.40;7.20;;;;;;;25.02;42.68;95317.19;6084288;28;108894;-62
2023/05/19 09:36:49;;;;;;;23.10;10.07;;;;;;;25.02;42.84;95314.50;6094625;28;108647;-62
2023/05/19 09:39:53;;;;;;;16.60;9.10;;;;;;;25.35;42.14;95319.34;6113114;28;108920;-63
2023/05/19 09:42:57;;;;;;;23.47;9.60;;;;;;;25.67;41.83;95315.31;6133275;28;109001;-62
2023/05/19 09:46:03;;;;;;;24.27;8.70;;;;;;;25.40;41.98;95316.53;6127299;28;109553;-62
2023/05/19 09:49:09;;;;;;;20.37;10.17;;;;;;;24.97;43.20;95316.56;6109710;28;109102;-63
2023/05/19 09:52:16;;;;;;;19.83;10.10;;;;;;;25.35;42.70;95304.06;6088422;28;108921;-62
2023/05/19 09:55:21;;;;;;;18.90;9.40;;;;;;;25.62;42.04;95310.13;6088214;28;108852;-63
2023/05/19 09:58:26;;;;;;;23.13;9.90;;;;;;;25.74;41.92;95309.47;6100319;28;108978;-62
2023/05/19 10:01:32;;;;;;;19.40;10.13;;;;;;;25.05;43.16;95300.50;6098789;28;108977;-63
2023/05/19 10:04:36;;;;;;;17.60;9.30;;;;;;;25.24;42.81;95302.81;6115862;28;109191;-62
2023/05/19 10:07:40;;;;;;;20.33;10.50;;;;;;;25.55;42.00;95302.59;6110149;28;108882;-65
2023/05/19 10:10:46;;;;;;;14.70;9.83;;;;;;;25.72;42.34;95295.59;6103596;28;108904;-66
2023/05/19 10:13:52;;;;;;;26.27;10.50;;;;;;;25.15;43.45;95290.53;6112694;28;108896;-64
2023/05/19 10:16:56;;;;;;;21.97;10.13;;;;;;;25.25;42.96;95296.34;6113222;28;108873;-65
2023/05/19 10:20:01;;;;;;;19.73;9.57;;;;;;;25.57;42.53;95294.22;6102342;28;109165;-65
2023/05/19 10:23:04;;;;;;;20.20;9.30;;;;;;;25.64;42.65;95292.63;6100331;28;109322;-65
2023/05/19 10:26:08;;;;;;;18.93;9.93;;;;;;;25.07;43.16;95284.13;6087261;28;109005;-64
2023/05/19 10:29:17;;;;;;;16.07;10.60;;;;;;;25.30;43.10;95279.31;6088462;28;108960;-65
2023/05/19 10:32:26;;;;;;;19.63;10.50;;;;;;;25.63;42.13;95283.00;6077158;28;108898;-65
2023/05/19 10:36:09;;;;;;;24.73;9.67;;;;;;;25.62;42.55;95278.75;6087696;28;108876;-65
2023/05/19 10:39:17;;;;;;;20.90;10.87;;;;;;;25.06;43.50;95274.50;6087832;28;109103;-66
2023/05/19 10:42:32;;;;;;;21.03;10.93;;;;;;;25.41;43.07;95274.44;6082742;28;108997;-65
2023/05/19 10:45:42;;;;;;;21.53;10.40;;;;;;;25.65;42.83;95280.78;6091315;28;109097;-65
2023/05/19 10:48:46;;;;;;;24.40;9.80;;;;;;;25.38;43.13;95275.88;6092321;28;108986;-66
2023/05/19 10:51:49;;;;;;;24.63;11.50;;;;;;;25.10;43.70;95278.13;6091949;28;108985;-65
2023/05/19 10:54:53;;;;;;;22.03;12.07;;;;;;;25.41;43.48;95267.19;6081607;28;108843;-64
2023/05/19 10:57:57;;;;;;;27.70;12.00;;;;;;;25.69;42.33;95273.66;6091329;28;108951;-65
2023/05/19 11:01:02;;;;;;;25.70;11.63;;;;;;;25.42;43.01;95266.06;6091747;28;108944;-66
2023/05/19 11:04:06;;;;;;;28.53;12.47;;;;;;;25.14;44.12;95264.88;6092117;28;108955;-66
2023/05/19 11:07:10;;;;;;;34.07;13.67;;;;;;;25.47;43.36;95259.75;6094693;28;109601;-65
2023/05/19 11:10:13;;;;;;;28.60;13.03;;;;;;;25.72;42.56;95258.06;6115216;28;108971;-65
2023/05/19 11:13:21;;;;;;;34.80;13.87;;;;;;;25.50;43.00;95264.47;6115866;28;108896;-66
2023/05/19 11:16:31;;;;;;;44.20;16.00;;;;;;;25.17;43.93;95248.16;6110214;28;108951;-65
2023/05/19 11:19:36;;;;;;;40.40;16.57;;;;;;;25.52;43.09;95248.84;6113028;28;108887;-65
2023/05/19 11:22:40;;;;;;;34.20;16.43;;;;;;;25.69;43.33;95246.06;6115371;28;108946;-65
2023/05/19 11:25:45;;;;;;;42.27;16.53;;;;;;;25.46;43.55;95256.28;6115530;28;108999;-67
2023/05/19 11:28:49;;;;;;;55.67;18.90;;;;;;;25.16;44.33;95257.31;6103700;28;109073;-66
2023/05/19 11:31:54;;;;;;;41.13;17.30;;;;;;;25.54;43.46;95258.16;6115674;28;108982;-66
2023/05/19 11:34:58;;;;;;;37.43;17.27;;;;;;;25.68;43.14;95272.09;6114580;28;109855;-66
2023/05/19 11:38:01;;;;;;;38.40;18.70;;;;;;;25.56;43.24;95282.72;6095079;28;109257;-66
2023/05/19 11:41:05;;;;;;;41.37;18.60;;;;;;;25.05;44.61;95297.03;6080625;28;109231;-66
2023/05/19 11:44:11;;;;;;;59.60;21.30;;;;;;;25.19;44.83;95300.28;6091045;28;109053;-66
2023/05/19 11:47:16;;;;;;;41.73;20.70;;;;;;;25.44;44.07;95300.59;6091674;28;108862;-63
2023/05/19 11:50:20;;;;;;;49.80;21.23;;;;;;;25.54;44.07;95292.19;6086464;28;109157;-64
2023/05/19 11:53:23;;;;;;;50.07;21.00;;;;;;;25.51;44.08;95300.88;6085492;28;109193;-62
2023/05/19 11:56:26;;;;;;;44.47;20.40;;;;;;;25.55;43.82;95332.09;6090450;28;108901;-62
2023/05/19 11:59:31;;;;;;;57.27;22.57;;;;;;;25.53;43.91;95344.19;6089311;28;108894;-62
2023/05/19 12:02:38;;;;;;;52.43;20.90;;;;;;;25.58;43.57;95350.19;6103603;28;109308;-64
2023/05/19 12:05:44;;;;;;;34.53;19.30;;;;;;;25.61;43.36;95348.75;6115046;28;108837;-63
2023/05/19 12:08:51;;;;;;;39.87;19.03;;;;;;;25.63;43.50;95347.34;6114699;28;109042;-64
2023/05/19 12:11:55;;;;;;;50.10;18.93;;;;;;;25.62;43.29;95340.41;6087030;28;109102;-64
2023/05/19 12:14:58;;;;;;;43.83;18.60;;;;;;;25.67;43.01;95337.53;6056300;28;109003;-63
2023/05/19 12:18:03;;;;;;;39.93;17.90;;;;;;;25.78;42.45;95329.94;6066900;28;108888;-64
2023/05/19 12:21:06;;;;;;;35.80;17.53;;;;;;;25.84;42.85;95335.88;6066927;28;109099;-64
2023/05/19 12:24:10;;;;;;;34.47;15.37;;;;;;;25.83;42.51;95327.06;6063228;28;108957;-64
2023/05/19 12:27:18;;;;;;;28.17;16.20;;;;;;;25.13;44.20;95324.91;6060884;28;109072;-70
2023/05/19 12:30:27;;;;;;;99.67;26.63;;;;;;;24.44;44.87;95323.81;6067389;28;108877;-72
2023/05/19 12:33:33;;;;;;;117.30;31.17;;;;;;;24.10;46.51;95329.09;6074759;28;108942;-72
2023/05/19 12:36:38;;;;;;;82.37;25.20;;;;;;;23.86;47.05;95322.25;6079062;28;109385;-72
2023/05/19 12:39:42;;;;;;;64.27;22.77;;;;;;;23.71;47.36;95328.03;6089588;28;108968;-72
2023/05/19 12:42:47;;;;;;;63.83;24.70;;;;;;;23.64;47.44;95322.31;6092810;28;109466;-72
2023/05/19 12:45:51;;;;;;;70.60;22.93;;;;;;;23.59;47.85;95309.91;6110121;28;108898;-72
2023/05/19 12:48:59;;;;;;;59.70;23.57;;;;;;;23.52;48.11;95306.06;6099922;28;108971;-72
2023/05/19 12:52:02;;;;;;;65.87;23.90;;;;;;;23.50;48.30;95300.25;6138227;28;108857;-71
2023/05/19 12:55:12;;;;;;;53.83;22.90;;;;;;;23.47;48.18;95296.31;6137807;28;108883;-73
2023/05/19 12:58:16;;;;;;;48.17;21.57;;;;;;;23.43;48.47;95290.03;6132701;28;108967;-71
2023/05/19 13:01:19;;;;;;;46.40;21.17;;;;;;;23.41;48.17;95292.22;6130412;28;109020;-72
2023/05/19 13:04:24;;;;;;;57.30;20.37;;;;;;;23.35;49.50;95289.97;6137262;28;108890;-71
2023/05/19 13:07:28;;;;;;;52.07;19.97;;;;;;;23.27;49.22;95278.94;6120938;28;108973;-70
2023/05/19 13:10:31;;;;;;;42.87;17.93;;;;;;;23.25;49.17;95277.66;6103666;28;108909;-72
2023/05/19 13:13:35;;;;;;;41.50;18.03;;;;;;;23.23;48.76;95280.66;6113140;28;109002;-71
2023/05/19 13:16:39;;;;;;;33.03;16.17;;;;;;;23.17;48.81;95268.50;6100232;28;108986;-71
2023/05/19 13:19:43;;;;;;;39.77;16.40;;;;;;;23.16;48.70;95269.59;6089073;28;108902;-71
2023/05/19 13:22:47;;;;;;;28.53;15.97;;;;;;;23.15;49.44;95267.25;6078932;28;109797;-71
2023/05/19 13:25:51;;;;;;;29.40;16.30;;;;;;;23.10;49.01;95254.81;6089587;28;109024;-72
2023/05/19 13:28:54;;;;;;;25.97;15.30;;;;;;;23.11;49.03;95256.38;6088979;28;108971;-72
2023/05/19 13:31:57;;;;;;;27.67;14.87;;;;;;;23.06;49.74;95261.88;6087978;28;108941;-72
2023/05/19 13:35:05;;;;;;;31.30;15.27;;;;;;;23.06;49.26;95256.53;6077416;28;109008;-71
2023/05/19 13:38:09;;;;;;;23.80;14.70;;;;;;;23.06;49.17;95259.19;6108892;28;108891;-71
2023/05/19 13:41:13;;;;;;;23.50;14.50;;;;;;;23.03;49.95;95251.03;6113892;28;108894;-72
2023/05/19 13:44:18;;;;;;;26.40;14.07;;;;;;;23.03;49.69;95256.34;6106336;28;109139;-71
2023/05/19 13:51:48;;;;;;;25.53;14.37;;;;;;;22.99;49.98;95253.50;6100721;28;109403;-63
2023/05/19 13:59:17;;;;;;;25.87;12.50;;;;;;;22.86;48.13;95247.16;6077718;28;109654;-74
2023/05/19 14:02:20;;;;;;;13.83;9.23;;;;;;;22.67;46.82;95249.22;6088236;28;108876;-75
2023/05/19 14:05:24;;;;;;;13.33;9.43;;;;;;;22.63;46.06;95254.38;6090533;28;108772;-74
2023/05/19 14:08:28;;;;;;;11.80;9.63;;;;;;;22.63;45.97;95243.72;6089652;28;108925;-71
2023/05/19 14:11:32;;;;;;;14.37;9.57;;;;;;;22.60;46.42;95244.31;6088828;28;108904;-71
2023/05/19 14:14:35;;;;;;;12.63;10.20;;;;;;;22.62;46.75;95244.81;6105922;28;109610;-70
2023/05/19 14:17:38;;;;;;;17.27;10.13;;;;;;;22.58;46.61;95246.50;6114145;28;108973;-70
2023/05/19 14:20:41;;;;;;;14.43;10.37;;;;;;;22.61;47.04;95237.88;6118350;28;108995;-71